Time;durP1;ratioP1;P1;durP2;ratioP2;P2;SDS_P1;SDS_P2;PMS_P1;PMS_P2;Temp;Humidity;BMP_temperature;BMP_pressure;BME280_temperature;BME280_humidity;BME280_pressure;Samples;Min_cycle;Max_cycle;Signal;HPM_P1;HPM_P2
2021/04/04 00:01:21;;;;;;;3.43;2.80;;;5.20;99.90;;;;;;5032925;28;20185;-75
2021/04/04 00:03:48;;;;;;;4.00;3.30;;;5.20;99.90;;;;;;5034116;28;20554;-76
2021/04/04 00:06:14;;;;;;;4.07;2.90;;;5.10;99.90;;;;;;5033964;28;20210;-76
2021/04/04 00:08:40;;;;;;;3.30;2.93;;;4.90;99.90;;;;;;5034063;28;20663;-76
2021/04/04 00:11:05;;;;;;;6.20;3.23;;;5.00;99.90;;;;;;5034010;28;20273;-76
2021/04/04 00:13:32;;;;;;;5.10;3.07;;;4.90;99.90;;;;;;5032960;28;20227;-76
2021/04/04 00:15:58;;;;;;;6.67;3.37;;;4.90;99.90;;;;;;5033868;28;20221;-76
2021/04/04 00:18:24;;;;;;;5.43;2.90;;;4.90;99.90;;;;;;5033084;28;20589;-75
2021/04/04 00:20:49;;;;;;;4.60;2.60;;;4.90;99.90;;;;;;5034033;28;20268;-77
2021/04/04 00:23:15;;;;;;;3.70;3.03;;;4.90;99.90;;;;;;5033657;28;20270;-77
2021/04/04 00:25:41;;;;;;;4.53;3.20;;;4.80;99.90;;;;;;5033984;28;20226;-74
2021/04/04 00:28:07;;;;;;;4.50;3.37;;;4.80;99.90;;;;;;5032181;28;20189;-77
2021/04/04 00:30:32;;;;;;;4.13;3.07;;;4.80;99.90;;;;;;5033702;28;20185;-76
2021/04/04 00:32:58;;;;;;;5.27;3.13;;;4.70;99.90;;;;;;5033431;28;20205;-77
2021/04/04 00:35:25;;;;;;;6.13;3.40;;;4.80;99.90;;;;;;5033576;28;20251;-76
2021/04/04 00:37:52;;;;;;;5.43;2.70;;;4.80;99.90;;;;;;5032251;28;20174;-78
2021/04/04 00:40:21;;;;;;;3.77;3.03;;;4.90;99.90;;;;;;5032263;28;20178;-74
2021/04/04 00:42:47;;;;;;;4.80;2.97;;;4.90;99.90;;;;;;5033886;28;20578;-75
2021/04/04 00:45:18;;;;;;;5.53;3.07;;;4.90;99.90;;;;;;5032017;28;20204;-74
2021/04/04 00:47:45;;;;;;;3.83;3.40;;;4.90;99.90;;;;;;5033590;28;20208;-75
2021/04/04 00:50:11;;;;;;;3.27;2.80;;;4.80;99.90;;;;;;5033245;28;20725;-74
2021/04/04 00:52:38;;;;;;;4.50;2.90;;;4.80;99.90;;;;;;5033040;28;20553;-74
2021/04/04 00:55:08;;;;;;;4.87;2.73;;;4.80;99.90;;;;;;5033201;28;20202;-75
2021/04/04 00:57:34;;;;;;;3.23;2.90;;;4.90;99.90;;;;;;5033338;28;20273;-75
2021/04/04 01:00:03;;;;;;;3.37;2.97;;;4.80;99.90;;;;;;5024638;28;20217;-75
2021/04/04 01:02:29;;;;;;;5.60;3.47;;;4.70;99.90;;;;;;5033181;28;20263;-75
2021/04/04 01:04:57;;;;;;;6.50;3.23;;;4.60;99.90;;;;;;5031736;28;20366;-75
2021/04/04 01:07:23;;;;;;;5.47;3.10;;;4.60;99.90;;;;;;5033124;28;20179;-75
2021/04/04 01:09:48;;;;;;;4.87;2.77;;;4.40;99.90;;;;;;5031977;28;20185;-75
2021/04/04 01:12:44;;;;;;;3.17;2.77;;;4.30;99.90;;;;;;5032935;28;20204;-75
2021/04/04 01:15:17;;;;;;;4.23;3.17;;;4.30;99.90;;;;;;5033117;28;20385;-75
2021/04/04 01:17:46;;;;;;;7.53;3.13;;;4.40;99.90;;;;;;5031869;28;20185;-76
2021/04/04 01:20:52;;;;;;;4.93;3.17;;;4.30;99.90;;;;;;5031396;28;20178;-75
2021/04/04 01:23:56;;;;;;;4.40;2.83;;;4.30;99.90;;;;;;4972516;28;20312;-75
2021/04/04 01:26:54;;;;;;;4.40;2.97;;;4.20;99.90;;;;;;5033103;28;20212;-75
2021/04/04 01:29:23;;;;;;;4.70;3.17;;;4.00;99.90;;;;;;5002292;28;20196;-76
2021/04/04 01:31:51;;;;;;;4.33;3.17;;;3.90;99.90;;;;;;5032874;28;20195;-75
2021/04/04 01:34:27;;;;;;;3.07;2.47;;;4.00;99.90;;;;;;5032897;28;20185;-75
2021/04/04 01:36:57;;;;;;;4.60;3.00;;;3.90;99.90;;;;;;5032883;28;20547;-75
2021/04/04 01:39:29;;;;;;;6.37;3.23;;;3.90;99.90;;;;;;5019750;28;20711;-75
2021/04/04 01:41:56;;;;;;;4.43;3.07;;;3.90;99.90;;;;;;5009356;28;20568;-76
2021/04/04 01:44:25;;;;;;;4.57;2.93;;;3.90;99.90;;;;;;5011777;28;20206;-76
2021/04/04 01:46:54;;;;;;;4.73;3.27;;;3.90;99.90;;;;;;5015582;28;20377;-75
2021/04/04 01:49:21;;;;;;;6.60;3.30;;;3.90;99.90;;;;;;5012185;28;20544;-76
2021/04/04 01:51:47;;;;;;;6.00;3.10;;;3.90;99.90;;;;;;5014599;28;20184;-76
2021/04/04 01:54:16;;;;;;;3.50;3.17;;;4.00;99.90;;;;;;5016900;28;20544;-76
2021/04/04 01:56:42;;;;;;;3.80;2.90;;;4.00;99.90;;;;;;5006948;28;20296;-75
2021/04/04 01:59:10;;;;;;;4.07;3.10;;;4.00;99.90;;;;;;4995677;28;20269;-76
2021/04/04 02:01:36;;;;;;;4.57;2.90;;;4.10;99.90;;;;;;4992156;28;20174;-76
2021/04/04 02:04:07;;;;;;;6.50;2.97;;;4.00;99.90;;;;;;4999705;28;20228;-76
2021/04/04 02:06:35;;;;;;;3.63;3.00;;;4.10;99.90;;;;;;4997833;28;20186;-76
2021/04/04 02:09:04;;;;;;;4.93;3.33;;;4.00;99.90;;;;;;5000805;28;20339;-76
2021/04/04 02:11:31;;;;;;;3.10;2.70;;;3.90;99.90;;;;;;4999223;28;20224;-76
2021/04/04 02:13:57;;;;;;;3.73;3.03;;;3.70;99.90;;;;;;5000276;28;20258;-76
2021/04/04 02:16:25;;;;;;;5.10;3.10;;;3.80;99.90;;;;;;5014868;28;20202;-76
2021/04/04 02:18:51;;;;;;;4.70;3.33;;;3.80;99.90;;;;;;4998748;28;20173;-75
2021/04/04 02:21:18;;;;;;;5.87;3.30;;;3.70;99.90;;;;;;5001536;28;20183;-76
2021/04/04 02:23:43;;;;;;;5.20;2.97;;;3.70;99.90;;;;;;4995005;28;20543;-76
2021/04/04 02:26:10;;;;;;;4.50;3.00;;;3.80;99.90;;;;;;5001409;28;20201;-76
2021/04/04 02:28:35;;;;;;;5.00;3.40;;;3.80;99.90;;;;;;4996073;28;20667;-76
2021/04/04 02:31:02;;;;;;;6.90;3.33;;;3.80;99.90;;;;;;5011583;28;20216;-76
2021/04/04 02:33:36;;;;;;;6.57;3.73;;;3.70;99.90;;;;;;5003477;28;20206;-75
2021/04/04 02:36:07;;;;;;;6.40;3.40;;;3.70;99.90;;;;;;5008898;28;20234;-75
2021/04/04 02:38:40;;;;;;;4.87;2.93;;;3.70;99.90;;;;;;5006195;28;20165;-76
2021/04/04 02:41:09;;;;;;;4.80;2.70;;;3.70;99.90;;;;;;5033095;28;20196;-76
2021/04/04 02:43:37;;;;;;;5.80;2.97;;;3.70;99.90;;;;;;5036177;28;20640;-76
2021/04/04 02:46:06;;;;;;;3.90;3.07;;;3.70;99.90;;;;;;5036168;28;20612;-76
2021/04/04 02:48:46;;;;;;;3.80;2.57;;;3.50;99.90;;;;;;5035576;28;20190;-77
2021/04/04 02:51:16;;;;;;;3.60;2.93;;;3.50;99.90;;;;;;5035982;28;20186;-76
2021/04/04 02:53:46;;;;;;;4.57;3.17;;;3.40;99.90;;;;;;5035689;28;20552;-76
2021/04/04 02:56:14;;;;;;;6.67;3.50;;;3.30;99.90;;;;;;5035744;28;20221;-76
2021/04/04 02:58:42;;;;;;;4.30;3.33;;;3.10;99.90;;;;;;5035394;28;20198;-76
2021/04/04 03:01:10;;;;;;;6.37;3.00;;;3.10;99.90;;;;;;5026824;28;20186;-76
2021/04/04 03:03:38;;;;;;;4.20;2.90;;;3.10;99.90;;;;;;5035341;28;20200;-76
2021/04/04 03:06:07;;;;;;;4.10;2.70;;;3.10;99.90;;;;;;5035191;28;20208;-76
2021/04/04 03:08:38;;;;;;;4.17;2.90;;;3.10;99.90;;;;;;5034968;28;20171;-75
2021/04/04 03:11:04;;;;;;;4.90;3.00;;;3.20;99.90;;;;;;5035208;28;20730;-76
2021/04/04 03:13:31;;;;;;;3.90;2.77;;;3.30;99.90;;;;;;5034756;28;20228;-76
2021/04/04 03:15:58;;;;;;;5.87;2.90;;;3.30;99.90;;;;;;5034756;28;20199;-76
2021/04/04 03:18:25;;;;;;;4.33;2.80;;;3.40;99.90;;;;;;5035129;28;20177;-76
2021/04/04 03:20:52;;;;;;;3.73;3.07;;;3.50;99.90;;;;;;5035007;28;20183;-76
2021/04/04 03:23:19;;;;;;;3.87;2.63;;;3.50;99.90;;;;;;5035020;28;20205;-76
2021/04/04 03:25:46;;;;;;;6.73;3.00;;;3.60;99.90;;;;;;5035090;28;20244;-76
2021/04/04 03:28:15;;;;;;;3.73;3.00;;;3.60;99.90;;;;;;5034887;28;20271;-76
2021/04/04 03:30:45;;;;;;;9.77;3.07;;;3.70;99.90;;;;;;5034873;28;20186;-76
2021/04/04 03:33:17;;;;;;;3.87;2.60;;;3.70;99.90;;;;;;5033175;28;20251;-76
2021/04/04 03:35:46;;;;;;;3.97;2.60;;;3.80;99.90;;;;;;5033423;28;20719;-76
2021/04/04 03:38:13;;;;;;;5.60;3.00;;;3.80;99.90;;;;;;5034746;28;20176;-76
2021/04/04 03:40:39;;;;;;;5.17;2.77;;;3.80;99.90;;;;;;5026566;28;20184;-74
2021/04/04 03:43:20;;;;;;;4.23;2.67;;;3.80;99.90;;;;;;5028514;28;20718;-75
2021/04/04 03:45:49;;;;;;;4.17;2.60;;;3.70;99.90;;;;;;5034349;28;20235;-74
2021/04/04 03:48:14;;;;;;;4.07;2.97;;;3.70;99.90;;;;;;5034478;28;20172;-75
2021/04/04 03:50:45;;;;;;;5.20;2.90;;;3.70;99.90;;;;;;5034537;28;20184;-74
2021/04/04 03:53:11;;;;;;;5.70;2.73;;;3.70;99.90;;;;;;5034495;28;20208;-75
2021/04/04 03:55:38;;;;;;;4.07;2.90;;;3.80;99.90;;;;;;5027894;28;20204;-75
2021/04/04 03:58:05;;;;;;;5.07;3.33;;;3.70;99.90;;;;;;5034565;28;20181;-74
2021/04/04 04:00:33;;;;;;;6.07;2.67;;;3.70;99.90;;;;;;5019360;28;20188;-75
2021/04/04 04:03:01;;;;;;;6.07;2.97;;;3.70;99.90;;;;;;5018381;28;20185;-75
2021/04/04 04:05:28;;;;;;;4.47;2.83;;;3.70;99.90;;;;;;5044534;22;20619;-74
2021/04/04 04:07:56;;;;;;;4.83;3.00;;;3.70;99.90;;;;;;5012749;28;20179;-74
2021/04/04 04:10:22;;;;;;;4.20;3.00;;;3.70;99.90;;;;;;5012358;28;20661;-74
2021/04/04 04:12:50;;;;;;;7.73;2.90;;;3.70;99.90;;;;;;5013992;28;20197;-74
2021/04/04 04:15:16;;;;;;;5.67;3.03;;;3.70;99.90;;;;;;5013409;28;20221;-74
2021/04/04 04:17:45;;;;;;;6.03;2.90;;;3.70;99.90;;;;;;5014158;28;20295;-74
2021/04/04 04:20:13;;;;;;;3.87;2.90;;;3.60;99.90;;;;;;5014405;28;20191;-74
2021/04/04 04:22:40;;;;;;;5.77;2.60;;;3.60;99.90;;;;;;5013748;28;20189;-74
2021/04/04 04:25:07;;;;;;;4.63;2.87;;;3.60;99.90;;;;;;5013704;28;20214;-74
2021/04/04 04:27:34;;;;;;;4.07;2.80;;;3.60;99.90;;;;;;5013814;28;20197;-74
2021/04/04 04:30:02;;;;;;;5.93;2.97;;;3.60;99.90;;;;;;5014088;28;20284;-74
2021/04/04 04:32:30;;;;;;;5.50;2.93;;;3.60;99.90;;;;;;5012817;28;20581;-74
2021/04/04 04:34:56;;;;;;;4.03;3.00;;;3.60;99.90;;;;;;5013996;28;20177;-74
2021/04/04 04:37:23;;;;;;;5.00;3.10;;;3.60;99.90;;;;;;5013867;28;20265;-74
2021/04/04 04:39:49;;;;;;;5.63;3.13;;;3.60;99.90;;;;;;5013163;28;20269;-74
2021/04/04 04:42:17;;;;;;;3.53;2.40;;;3.60;99.90;;;;;;5013846;28;20660;-74
2021/04/04 04:44:47;;;;;;;7.07;3.10;;;3.50;99.90;;;;;;5012364;28;20196;-75
2021/04/04 04:47:13;;;;;;;4.70;2.67;;;3.50;99.90;;;;;;5012296;28;20292;-75
2021/04/04 04:49:44;;;;;;;5.50;3.23;;;3.50;99.90;;;;;;5011749;28;20192;-74
2021/04/04 04:52:11;;;;;;;4.43;2.87;;;3.50;99.90;;;;;;5011200;28;20200;-74
2021/04/04 04:54:41;;;;;;;4.60;2.60;;;3.50;99.90;;;;;;5011740;28;20581;-74
2021/04/04 04:57:09;;;;;;;6.50;2.93;;;3.50;99.90;;;;;;5012161;28;20232;-74
2021/04/04 04:59:35;;;;;;;4.87;2.53;;;3.60;99.90;;;;;;5012221;28;20201;-74
2021/04/04 05:02:03;;;;;;;4.00;2.60;;;3.60;99.90;;;;;;5011362;28;20643;-74
2021/04/04 05:04:28;;;;;;;5.00;2.27;;;3.60;99.90;;;;;;5001947;28;20706;-74
2021/04/04 05:06:55;;;;;;;3.00;2.57;;;3.50;99.90;;;;;;5011056;28;20232;-74
2021/04/04 05:09:22;;;;;;;4.00;2.57;;;3.60;99.90;;;;;;5011474;28;20205;-74
2021/04/04 05:11:49;;;;;;;3.77;2.80;;;3.50;99.90;;;;;;5009609;28;20624;-74
2021/04/04 05:14:15;;;;;;;10.77;2.53;;;3.50;99.90;;;;;;5010672;28;20175;-74
2021/04/04 05:16:42;;;;;;;7.50;2.73;;;3.50;99.90;;;;;;5010746;28;20200;-74
2021/04/04 05:19:09;;;;;;;4.03;2.53;;;3.60;99.90;;;;;;5010420;28;20185;-74
2021/04/04 05:21:37;;;;;;;3.50;2.23;;;3.60;99.90;;;;;;5010724;28;20187;-74
2021/04/04 05:24:05;;;;;;;2.93;2.57;;;3.60;99.90;;;;;;5010682;28;20187;-74
2021/04/04 05:26:37;;;;;;;4.07;3.10;;;3.70;99.90;;;;;;4993105;28;20217;-74
2021/04/04 05:29:08;;;;;;;4.60;2.80;;;3.70;99.90;;;;;;5002549;28;20202;-74
2021/04/04 05:31:42;;;;;;;3.67;2.50;;;3.80;99.90;;;;;;5010538;28;20174;-74
2021/04/04 05:34:12;;;;;;;8.47;2.87;;;3.70;99.90;;;;;;5010585;28;20211;-74
2021/04/04 05:37:05;;;;;;;4.53;2.93;;;3.80;99.90;;;;;;5010552;28;20272;-74
2021/04/04 05:39:34;;;;;;;3.67;2.50;;;3.90;99.90;;;;;;5014063;28;20713;-74
2021/04/04 05:42:02;;;;;;;3.60;2.70;;;3.80;99.90;;;;;;5026073;28;20196;-74
2021/04/04 05:44:53;;;;;;;6.40;2.60;;;3.90;99.90;;;;;;5006653;28;20238;-74
2021/04/04 05:47:46;;;;;;;4.67;2.63;;;3.90;99.90;;;;;;5017089;28;20199;-74
2021/04/04 05:50:23;;;;;;;6.87;3.23;;;3.90;99.90;;;;;;5015056;28;20202;-74
2021/04/04 05:53:09;;;;;;;3.70;2.80;;;3.90;99.90;;;;;;5005670;28;20210;-74
2021/04/04 05:55:53;;;;;;;5.50;3.67;;;3.90;99.90;;;;;;4999443;28;20682;-75
2021/04/04 05:58:39;;;;;;;5.37;3.20;;;4.00;99.90;;;;;;5011216;28;20168;-75
2021/04/04 06:01:32;;;;;;;6.83;4.37;;;4.00;99.90;;;;;;5016764;28;20177;-74
2021/04/04 06:04:30;;;;;;;7.20;4.00;;;4.10;99.90;;;;;;5019072;28;20177;-74
2021/04/04 06:07:27;;;;;;;10.00;4.70;;;4.20;99.90;;;;;;5003093;28;20275;-74
2021/04/04 06:10:16;;;;;;;8.23;5.10;;;4.30;99.90;;;;;;5001445;28;20534;-74
2021/04/04 06:12:59;;;;;;;7.83;4.60;;;4.30;99.90;;;;;;5011993;28;20201;-74
2021/04/04 06:15:55;;;;;;;5.63;4.23;;;4.40;99.90;;;;;;5014615;28;20209;-74
2021/04/04 06:18:48;;;;;;;9.07;4.33;;;4.50;99.90;;;;;;4996642;28;20745;-74
2021/04/04 06:21:25;;;;;;;8.43;4.77;;;4.60;99.90;;;;;;5016347;28;20223;-75
2021/04/04 06:24:00;;;;;;;9.47;5.13;;;4.70;99.90;;;;;;5016178;28;20185;-74
2021/04/04 06:26:53;;;;;;;5.63;4.77;;;4.80;99.90;;;;;;5014842;28;20572;-74
2021/04/04 06:29:25;;;;;;;6.70;5.57;;;4.80;99.90;;;;;;5016259;28;20177;-74
2021/04/04 06:32:17;;;;;;;9.60;5.53;;;4.80;99.90;;;;;;5015969;28;20569;-74
2021/04/04 06:34:51;;;;;;;10.63;5.70;;;4.90;99.90;;;;;;5012830;28;20252;-74
2021/04/04 06:37:30;;;;;;;8.07;5.40;;;5.00;99.90;;;;;;5014898;28;20172;-75
2021/04/04 06:40:10;;;;;;;7.67;4.63;;;5.10;99.90;;;;;;5016054;28;20176;-75
2021/04/04 06:43:00;;;;;;;10.17;5.33;;;5.20;99.90;;;;;;5016023;28;20581;-75
2021/04/04 06:45:58;;;;;;;6.63;4.87;;;5.30;99.90;;;;;;5015879;28;20220;-75
2021/04/04 06:48:43;;;;;;;6.27;4.40;;;5.40;99.90;;;;;;5011140;28;20230;-75
2021/04/04 06:51:21;;;;;;;10.00;4.23;;;5.40;99.90;;;;;;5009556;28;20188;-74
2021/04/04 06:54:07;;;;;;;6.83;3.80;;;5.50;99.90;;;;;;4998875;28;20227;-74
2021/04/04 06:56:51;;;;;;;7.73;4.00;;;5.50;99.90;;;;;;4994743;28;20201;-75
2021/04/04 06:59:27;;;;;;;8.13;4.17;;;5.60;99.90;;;;;;4997153;28;20174;-75
2021/04/04 07:02:06;;;;;;;4.03;3.00;;;5.80;99.90;;;;;;4996327;28;20183;-75
2021/04/04 07:04:45;;;;;;;7.57;3.80;;;5.80;99.90;;;;;;4993402;28;20409;-75
2021/04/04 07:07:13;;;;;;;6.03;3.70;;;5.90;99.90;;;;;;4994519;28;20741;-75
2021/04/04 07:10:11;;;;;;;5.87;3.53;;;6.00;99.90;;;;;;4995108;28;20673;-75
2021/04/04 07:13:12;;;;;;;5.77;3.53;;;6.00;99.90;;;;;;4996936;28;20204;-75
2021/04/04 07:16:08;;;;;;;5.33;3.30;;;6.10;99.90;;;;;;4994352;28;20568;-75
2021/04/04 07:18:52;;;;;;;5.47;3.37;;;6.20;99.90;;;;;;4994148;28;20168;-75
2021/04/04 07:21:39;;;;;;;6.13;3.23;;;6.20;99.90;;;;;;4998499;28;20670;-75
2021/04/04 07:24:56;;;;;;;4.43;3.00;;;6.30;99.90;;;;;;5014563;28;20647;-75
2021/04/04 07:27:55;;;;;;;7.00;3.53;;;6.40;99.90;;;;;;5004183;28;20256;-75
2021/04/04 07:30:33;;;;;;;9.97;3.03;;;6.40;99.90;;;;;;5013720;28;20552;-75
2021/04/04 07:33:15;;;;;;;4.73;3.50;;;6.50;99.90;;;;;;5014508;28;20194;-75
2021/04/04 07:35:54;;;;;;;6.07;3.20;;;6.50;99.90;;;;;;5004019;28;20291;-75
2021/04/04 07:38:52;;;;;;;5.00;2.70;;;6.50;99.90;;;;;;5013352;28;20171;-75
2021/04/04 07:41:29;;;;;;;5.03;3.33;;;6.60;99.90;;;;;;5001782;28;20195;-75
2021/04/04 07:44:32;;;;;;;5.40;3.40;;;6.70;99.90;;;;;;5017059;28;20170;-75
2021/04/04 07:47:21;;;;;;;5.23;2.90;;;6.70;99.90;;;;;;5002900;28;20563;-75
2021/04/04 07:50:03;;;;;;;4.63;2.27;;;6.80;99.90;;;;;;5013437;28;20198;-75
2021/04/04 07:52:46;;;;;;;6.37;2.90;;;7.00;99.90;;;;;;5003656;28;20195;-75
2021/04/04 07:55:17;;;;;;;4.67;3.03;;;7.10;99.90;;;;;;5014230;28;20198;-75
2021/04/04 07:57:52;;;;;;;6.00;2.40;;;7.20;99.90;;;;;;5014107;28;20242;-75
2021/04/04 08:00:20;;;;;;;5.50;2.40;;;7.20;99.90;;;;;;5013078;28;20171;-75
2021/04/04 08:02:55;;;;;;;2.97;2.13;;;7.40;99.90;;;;;;5014730;28;20197;-75
2021/04/04 08:05:28;;;;;;;6.93;3.40;;;7.60;99.90;;;;;;5014292;28;20214;-75
2021/04/04 08:08:03;;;;;;;3.63;2.50;;;7.60;99.90;;;;;;5014478;28;20238;-75
2021/04/04 08:10:47;;;;;;;5.17;2.13;;;7.70;99.70;;;;;;5014320;28;20684;-75
2021/04/04 08:13:20;;;;;;;4.30;2.20;;;7.70;99.50;;;;;;5014774;28;20290;-75
2021/04/04 08:16:14;;;;;;;4.57;2.20;;;7.80;99.50;;;;;;5012728;28;20233;-75
2021/04/04 08:18:40;;;;;;;6.47;2.40;;;7.80;99.40;;;;;;5014391;28;20658;-75
2021/04/04 08:21:12;;;;;;;5.40;2.73;;;7.80;99.80;;;;;;5012535;28;20217;-75
2021/04/04 08:23:48;;;;;;;3.13;1.77;;;7.90;99.30;;;;;;5014342;28;20180;-76
2021/04/04 08:26:30;;;;;;;4.40;2.23;;;8.00;99.40;;;;;;5014020;28;20198;-75
2021/04/04 08:29:03;;;;;;;6.63;1.87;;;8.10;99.00;;;;;;5014290;28;20532;-75
2021/04/04 08:31:38;;;;;;;4.07;2.33;;;8.20;99.00;;;;;;5013912;28;21026;-75
2021/04/04 08:34:24;;;;;;;4.47;2.43;;;8.20;98.20;;;;;;5013962;28;20196;-75
2021/04/04 08:36:57;;;;;;;4.83;2.30;;;8.20;98.70;;;;;;5006415;28;20236;-75
2021/04/04 08:39:25;;;;;;;5.43;2.30;;;8.20;98.30;;;;;;5014175;28;20647;-75
2021/04/04 08:41:53;;;;;;;7.80;2.60;;;8.20;98.80;;;;;;5012380;28;20278;-75
2021/04/04 08:44:30;;;;;;;6.67;2.33;;;8.40;98.70;;;;;;4996410;28;20280;-74
2021/04/04 08:47:04;;;;;;;5.20;2.30;;;8.50;98.10;;;;;;5013746;28;20225;-76
2021/04/04 08:49:30;;;;;;;3.57;2.33;;;8.70;97.80;;;;;;5013829;28;20180;-76
2021/04/04 08:52:25;;;;;;;4.23;2.40;;;8.60;98.20;;;;;;5013571;28;20172;-75
2021/04/04 08:54:54;;;;;;;5.13;2.03;;;8.70;98.10;;;;;;5012043;28;20188;-76
2021/04/04 08:57:29;;;;;;;4.43;2.47;;;8.70;97.60;;;;;;5013882;28;20170;-76
2021/04/04 08:59:55;;;;;;;3.77;2.90;;;8.80;97.90;;;;;;5012230;28;20215;-76
2021/04/04 09:02:24;;;;;;;5.17;2.47;;;8.80;97.80;;;;;;5013687;28;20212;-76
2021/04/04 09:04:50;;;;;;;6.17;2.30;;;8.80;97.70;;;;;;5013448;28;20232;-75
2021/04/04 09:07:19;;;;;;;3.83;2.87;;;8.80;97.70;;;;;;5013503;28;20648;-76
2021/04/04 09:09:46;;;;;;;4.70;2.27;;;8.90;98.80;;;;;;5013529;28;20771;-76
2021/04/04 09:12:13;;;;;;;4.73;2.30;;;9.00;98.50;;;;;;5011486;28;20205;-75
2021/04/04 09:14:41;;;;;;;2.63;2.37;;;9.00;98.00;;;;;;5011185;28;20243;-76
2021/04/04 09:17:16;;;;;;;6.80;2.53;;;9.10;99.10;;;;;;5013224;28;20173;-76
2021/04/04 09:19:45;;;;;;;4.53;2.30;;;9.20;97.50;;;;;;5013425;28;20252;-76
2021/04/04 09:22:18;;;;;;;4.40;2.50;;;9.20;97.10;;;;;;5006576;28;20546;-76
2021/04/04 09:24:52;;;;;;;4.90;2.37;;;9.10;97.90;;;;;;5013615;28;20170;-76
2021/04/04 09:27:21;;;;;;;3.60;2.10;;;9.10;98.00;;;;;;5013549;28;20190;-76
2021/04/04 09:29:51;;;;;;;3.30;2.33;;;9.20;97.90;;;;;;5013178;28;20267;-76
2021/04/04 09:32:42;;;;;;;3.73;2.20;;;9.20;98.70;;;;;;5012986;28;20210;-75
2021/04/04 09:35:14;;;;;;;2.67;1.90;;;9.30;97.20;;;;;;5015552;28;20178;-77
2021/04/04 09:37:41;;;;;;;6.30;2.00;;;9.40;95.30;;;;;;5009330;28;20187;-76
2021/04/04 09:40:07;;;;;;;2.47;2.03;;;9.50;94.30;;;;;;5014412;28;20612;-76
2021/04/04 09:42:33;;;;;;;3.20;2.10;;;9.60;93.60;;;;;;5013067;28;20664;-76
2021/04/04 09:45:35;;;;;;;2.60;1.80;;;9.60;93.60;;;;;;5012970;28;20183;-76
2021/04/04 09:48:23;;;;;;;3.40;2.00;;;9.70;93.90;;;;;;4953156;29;20247;-76
2021/04/04 09:50:50;;;;;;;2.80;1.80;;;9.80;93.70;;;;;;5009746;28;20692;-76
2021/04/04 09:53:43;;;;;;;3.67;1.67;;;10.10;93.40;;;;;;5013043;28;20648;-76
2021/04/04 09:56:17;;;;;;;3.87;1.57;;;10.20;92.20;;;;;;5012681;28;20238;-76
2021/04/04 09:58:45;;;;;;;2.60;1.80;;;10.20;91.80;;;;;;5013548;28;20172;-76
2021/04/04 10:01:15;;;;;;;3.57;1.80;;;10.20;91.20;;;;;;5012903;28;20258;-76
2021/04/04 10:03:41;;;;;;;3.75;1.90;;;10.10;91.70;;;;;;5010768;28;20418;-76
2021/04/04 10:06:12;;;;;;;3.83;1.90;;;10.20;92.20;;;;;;5027715;22;20961;-75
2021/04/04 10:08:38;;;;;;;2.90;1.97;;;10.30;92.00;;;;;;5022204;28;20206;-72
2021/04/04 10:11:15;;;;;;;6.27;2.50;;;10.50;92.90;;;;;;5027195;28;20681;-74
2021/04/04 10:13:40;;;;;;;4.40;2.30;;;10.50;93.50;;;;;;5018860;28;20695;-73
2021/04/04 10:16:19;;;;;;;3.47;1.60;;;10.60;91.90;;;;;;5032545;28;20187;-73
2021/04/04 10:19:00;;;;;;;3.47;1.83;;;10.80;94.90;;;;;;5032968;28;20167;-73
2021/04/04 10:21:26;;;;;;;3.50;1.80;;;10.90;91.10;;;;;;5031264;28;20257;-73
2021/04/04 10:23:52;;;;;;;3.40;1.87;;;10.90;90.80;;;;;;5032294;28;20270;-74
2021/04/04 10:26:21;;;;;;;6.13;2.57;;;10.90;91.60;;;;;;5033164;28;20205;-73
2021/04/04 10:29:03;;;;;;;4.47;2.20;;;10.90;90.70;;;;;;5034805;28;20174;-73
2021/04/04 10:31:48;;;;;;;4.03;1.90;;;10.90;91.10;;;;;;5036123;28;20175;-73
2021/04/04 10:34:14;;;;;;;3.60;1.97;;;10.90;91.00;;;;;;5033080;28;20253;-73
2021/04/04 10:36:40;;;;;;;5.43;2.03;;;11.20;93.00;;;;;;5033866;28;20565;-72
2021/04/04 10:39:22;;;;;;;5.73;2.20;;;11.30;90.80;;;;;;5035983;28;20175;-73
2021/04/04 10:41:48;;;;;;;4.87;1.90;;;11.30;90.20;;;;;;5034544;28;20198;-74
2021/04/04 10:44:23;;;;;;;3.10;1.70;;;11.30;90.00;;;;;;5035700;28;20224;-73
2021/04/04 10:46:49;;;;;;;2.30;1.90;;;11.30;90.60;;;;;;5034580;28;20198;-73
2021/04/04 10:49:16;;;;;;;3.37;1.93;;;11.40;90.10;;;;;;5034850;28;20201;-73
2021/04/04 10:51:44;;;;;;;4.57;2.07;;;11.40;89.40;;;;;;5034835;28;20174;-73
2021/04/04 10:54:10;;;;;;;4.43;1.90;;;11.40;90.30;;;;;;5036163;28;20197;-73
2021/04/04 10:56:36;;;;;;;4.03;2.33;;;11.60;90.30;;;;;;5034620;28;20194;-73
2021/04/04 10:59:03;;;;;;;3.67;1.60;;;11.70;90.10;;;;;;5034499;28;20178;-73
2021/04/04 11:01:33;;;;;;;4.63;2.17;;;11.60;90.80;;;;;;5024692;28;20182;-74
2021/04/04 11:04:01;;;;;;;3.40;1.83;;;11.70;90.20;;;;;;5033112;28;20669;-74
2021/04/04 11:06:27;;;;;;;2.97;2.13;;;11.80;89.40;;;;;;5035381;28;20206;-74
2021/04/04 11:08:52;;;;;;;4.30;1.87;;;11.90;88.60;;;;;;5035534;28;20182;-74
2021/04/04 11:11:19;;;;;;;3.03;1.70;;;11.90;90.30;;;;;;5035380;28;20710;-73
2021/04/04 11:13:47;;;;;;;3.83;1.80;;;12.10;89.70;;;;;;5034938;28;20202;-74
2021/04/04 11:16:15;;;;;;;2.80;2.50;;;12.10;89.50;;;;;;5035611;28;20206;-72
2021/04/04 11:18:50;;;;;;;4.33;2.10;;;12.10;90.10;;;;;;5035612;28;20179;-73
2021/04/04 11:21:24;;;;;;;3.53;2.43;;;12.00;88.70;;;;;;5035240;28;20258;-73
2021/04/04 11:23:50;;;;;;;3.77;2.20;;;12.20;90.00;;;;;;5034060;28;20257;-74
2021/04/04 11:26:37;;;;;;;3.60;2.13;;;12.30;88.50;;;;;;5033449;28;20293;-73
2021/04/04 11:29:14;;;;;;;3.77;2.00;;;12.20;89.70;;;;;;5035251;28;20178;-74
2021/04/04 11:31:53;;;;;;;4.53;1.93;;;12.20;89.90;;;;;;5035343;28;20182;-73
2021/04/04 11:34:34;;;;;;;2.87;1.80;;;12.20;87.60;;;;;;5020338;28;20241;-73
2021/04/04 11:37:05;;;;;;;2.37;2.00;;;12.40;90.00;;;;;;5034294;28;20198;-73
2021/04/04 11:39:32;;;;;;;3.30;2.00;;;12.60;88.80;;;;;;5034847;28;20178;-73
2021/04/04 11:42:03;;;;;;;2.90;1.83;;;12.60;87.70;;;;;;5035203;28;20706;-73
2021/04/04 11:44:33;;;;;;;3.20;2.30;;;12.60;89.70;;;;;;5033633;28;20174;-74
2021/04/04 11:46:59;;;;;;;3.37;2.43;;;12.60;89.10;;;;;;5033475;28;20202;-73
2021/04/04 11:49:40;;;;;;;4.23;2.43;;;12.60;90.00;;;;;;5034811;28;20176;-74
2021/04/04 11:52:08;;;;;;;4.80;3.20;;;12.90;91.60;;;;;;5033535;28;20183;-72
2021/04/04 11:57:21;;;;;;;5.03;2.80;;;13.20;91.70;;;;;;5034711;28;20201;-72
2021/04/04 11:59:51;;;;;;;4.50;2.80;;;13.10;89.60;;;;;;5034893;28;20640;-73
2021/04/04 12:02:19;;;;;;;5.07;2.27;;;13.10;89.80;;;;;;5008213;28;20187;-72
2021/04/04 12:04:58;;;;;;;3.27;2.43;;;13.00;88.60;;;;;;5034717;28;20645;-74
2021/04/04 12:07:24;;;;;;;4.90;2.70;;;13.10;91.40;;;;;;5033252;28;20241;-72
2021/04/04 12:09:50;;;;;;;3.97;2.40;;;13.00;87.70;;;;;;5020975;28;20684;-73
2021/04/04 12:12:16;;;;;;;3.97;2.20;;;12.90;88.80;;;;;;5020069;28;20690;-73
2021/04/04 12:14:55;;;;;;;2.63;2.17;;;12.90;88.80;;;;;;5034401;28;20171;-73
2021/04/04 12:17:26;;;;;;;5.47;2.80;;;12.90;87.00;;;;;;5034231;28;20672;-73
2021/04/04 12:19:52;;;;;;;4.40;2.00;;;12.90;87.80;;;;;;5033006;28;20177;-72
2021/04/04 12:22:20;;;;;;;4.53;2.70;;;12.90;90.20;;;;;;5032631;28;20205;-73
2021/04/04 12:24:51;;;;;;;3.77;2.43;;;13.00;88.40;;;;;;5034101;28;20656;-73
2021/04/04 12:27:23;;;;;;;2.73;2.30;;;12.90;88.20;;;;;;5034059;28;20202;-73
2021/04/04 12:29:50;;;;;;;5.33;2.70;;;13.10;90.10;;;;;;5007394;28;20613;-73
2021/04/04 12:32:31;;;;;;;3.73;2.57;;;13.40;90.70;;;;;;5033902;28;20253;-72
2021/04/04 12:35:08;;;;;;;10.87;8.07;;;13.60;88.50;;;;;;5024574;28;20196;-73
2021/04/04 12:37:37;;;;;;;4.30;3.03;;;13.40;87.60;;;;;;5033683;28;20194;-73
2021/04/04 12:40:07;;;;;;;3.73;2.40;;;13.50;88.90;;;;;;5033722;28;20170;-72
2021/04/04 12:42:35;;;;;;;3.10;2.40;;;13.50;87.50;;;;;;5033787;28;20181;-73
2021/04/04 12:45:12;;;;;;;2.80;2.07;;;13.70;90.00;;;;;;5018403;28;20227;-74
2021/04/04 12:47:40;;;;;;;3.47;2.67;;;13.90;87.00;;;;;;5002798;28;20210;-73
2021/04/04 12:50:15;;;;;;;4.00;2.17;;;14.00;86.90;;;;;;5008885;28;20217;-73
2021/04/04 12:52:51;;;;;;;2.77;2.07;;;14.00;87.20;;;;;;5012057;28;20200;-74
2021/04/04 12:55:18;;;;;;;4.63;2.30;;;14.10;90.40;;;;;;5006337;28;20173;-73
2021/04/04 12:57:45;;;;;;;3.27;1.80;;;14.00;85.60;;;;;;4999551;28;20192;-74
2021/04/04 13:00:20;;;;;;;7.30;4.83;;;14.10;87.50;;;;;;5009289;28;20175;-73
2021/04/04 13:02:52;;;;;;;3.83;2.33;;;14.00;83.90;;;;;;5004720;28;20230;-73
2021/04/04 13:05:18;;;;;;;54.53;31.70;;;13.90;83.50;;;;;;5015218;28;20186;-74
2021/04/04 13:07:44;;;;;;;17.73;12.57;;;13.70;83.90;;;;;;5013146;28;20221;-73
2021/04/04 13:10:11;;;;;;;5.30;4.53;;;13.60;84.40;;;;;;5022059;28;20188;-74
2021/04/04 13:12:41;;;;;;;3.10;1.97;;;13.60;85.00;;;;;;5010630;28;20252;-74
2021/04/04 13:15:08;;;;;;;1.97;1.60;;;13.60;84.00;;;;;;5005861;28;20189;-73
2021/04/04 13:17:41;;;;;;;3.60;2.70;;;13.70;84.60;;;;;;5020494;28;20280;-74
2021/04/04 13:20:09;;;;;;;4.93;2.00;;;13.80;85.70;;;;;;5012030;28;20277;-73
2021/04/04 13:22:36;;;;;;;60.43;30.50;;;14.00;85.00;;;;;;5014466;28;20212;-74
2021/04/04 13:25:05;;;;;;;7.73;6.73;;;14.10;82.50;;;;;;5021661;28;20313;-74